Adair, Illinois
Current Conditions -  °F | °C
As of 6:35 AM on Monday 20 Oct 2014 (Local Time) from KMQB Reporting Station
Clear Clear  
Wind Chill:   Ceiling: Unl
Heat Index: 10°   Visibility: 10mi
Dew Point:   Wind: 9mph
Humidity: 91%   Direction: 270°W
Pressure: 29.93"   Gusts: NA
Location:  40.42°N, 90.5°W
Report Text: KMQB 201135Z AUTO 27008KT 10SM CLR 10/08 A2993 RMK AO2 T00980084
Loading
Personal Weather Stations






























Interactive Weather Map
Tropical Storm Tracking
New forecast layout! Learn more

10-Day Weather Forecast

Advertisements
Track Severe Weather on mobile